createdAt,value
2022-08-04T00:02:57.581Z,25.40
2022-08-04T00:06:26.793Z,25.32
2022-08-04T00:10:00.267Z,25.19
2022-08-04T00:13:08.924Z,25.11
2022-08-04T00:16:15.254Z,25.20
2022-08-04T00:19:41.197Z,25.20
2022-08-04T00:22:49.506Z,25.11
2022-08-04T00:25:56.871Z,24.90
2022-08-04T00:29:03.036Z,24.87
2022-08-04T00:32:09.801Z,24.92
2022-08-04T00:35:15.936Z,24.97
2022-08-04T00:38:21.106Z,24.81
2022-08-04T00:41:56.333Z,24.76
2022-08-04T00:45:28.930Z,24.81
2022-08-04T00:49:02.655Z,24.85
2022-08-04T00:52:41.566Z,24.77
2022-08-04T00:56:05.994Z,24.94
2022-08-04T00:59:37.284Z,24.92
2022-08-04T01:02:51.583Z,24.90
2022-08-04T01:06:25.240Z,24.73
2022-08-04T01:09:36.406Z,24.80
2022-08-04T01:12:48.741Z,24.77
2022-08-04T01:16:07.925Z,24.68
2022-08-04T01:19:34.018Z,24.64
2022-08-04T01:23:11.909Z,24.57
2022-08-04T01:26:58.655Z,24.63
2022-08-04T01:30:04.965Z,24.71
2022-08-04T01:33:15.568Z,24.50
2022-08-04T01:36:25.199Z,24.54
2022-08-04T01:39:41.834Z,24.69
2022-08-04T01:42:53.181Z,24.63
2022-08-04T01:46:02.665Z,24.60
2022-08-04T01:49:09.919Z,24.57
2022-08-04T01:52:18.180Z,24.58
2022-08-04T01:55:25.176Z,24.56
2022-08-04T01:58:51.136Z,24.58
2022-08-04T02:01:56.557Z,24.41
2022-08-04T02:05:02.319Z,24.26
2022-08-04T02:08:39.326Z,24.25
2022-08-04T02:12:03.575Z,24.22
2022-08-04T02:15:15.442Z,24.15
2022-08-04T02:18:25.732Z,23.86
2022-08-04T02:21:42.308Z,24.10
2022-08-04T02:25:08.237Z,24.17
2022-08-04T02:28:23.440Z,24.02
2022-08-04T02:31:55.552Z,24.00
2022-08-04T02:35:06.810Z,23.97
2022-08-04T02:38:33.173Z,24.05
2022-08-04T02:41:41.055Z,24.06
2022-08-04T02:44:52.144Z,24.05
2022-08-04T02:48:08.131Z,24.16
2022-08-04T02:51:37.884Z,23.94
2022-08-04T02:54:45.964Z,23.81
2022-08-04T02:57:52.858Z,23.87
2022-08-04T03:00:58.285Z,23.71
2022-08-04T03:04:24.878Z,23.91
2022-08-04T03:07:49.276Z,23.91
2022-08-04T03:11:44.258Z,23.72
2022-08-04T03:15:01.256Z,23.47
2022-08-04T03:18:25.427Z,23.59
2022-08-04T03:21:49.237Z,23.37
2022-08-04T03:25:31.548Z,23.02
2022-08-04T03:29:15.254Z,23.26
2022-08-04T03:32:59.163Z,23.52
2022-08-04T03:36:31.731Z,23.55
2022-08-04T03:39:45.116Z,23.57
2022-08-04T03:43:09.084Z,23.59
2022-08-04T03:46:43.892Z,23.56
2022-08-04T03:49:58.251Z,23.44
2022-08-04T03:53:26.743Z,23.50
2022-08-04T03:56:53.681Z,23.55
2022-08-04T04:00:40.583Z,23.49
2022-08-04T04:04:19.986Z,23.53
2022-08-04T04:07:40.771Z,23.62
2022-08-04T04:11:18.474Z,23.65
2022-08-04T04:14:44.939Z,23.55
2022-08-04T04:18:07.790Z,23.56
2022-08-04T04:21:37.255Z,23.59
2022-08-04T04:24:50.453Z,23.58
2022-08-04T04:28:45.104Z,23.32
2022-08-04T04:32:22.309Z,23.36
2022-08-04T04:35:34.067Z,23.43
2022-08-04T04:38:45.115Z,23.56
2022-08-04T04:42:12.579Z,23.54
2022-08-04T04:45:35.153Z,23.63
2022-08-04T04:49:25.381Z,23.72
2022-08-04T04:53:07.752Z,23.70
2022-08-04T04:56:40.928Z,23.81
2022-08-04T04:59:49.671Z,23.87
2022-08-04T05:03:13.404Z,23.79
2022-08-04T05:06:41.415Z,23.81
2022-08-04T05:10:19.223Z,24.01
2022-08-04T05:14:37.802Z,24.09
2022-08-04T05:17:22.683Z,24.40
2022-08-04T05:20:51.666Z,24.57
2022-08-04T05:24:02.707Z,24.66
2022-08-04T05:27:34.997Z,24.77
2022-08-04T05:30:50.463Z,25.04
2022-08-04T05:34:06.044Z,24.97
2022-08-04T05:37:17.076Z,25.28
2022-08-04T05:40:24.756Z,25.51
2022-08-04T05:43:31.328Z,25.76
2022-08-04T05:46:37.603Z,25.80
2022-08-04T05:49:44.823Z,25.91
2022-08-04T05:52:51.827Z,25.93
2022-08-04T05:56:07.588Z,25.86
2022-08-04T05:59:14.988Z,25.90
2022-08-04T06:02:21.416Z,25.98
2022-08-04T06:05:27.392Z,26.10
2022-08-04T06:08:33.195Z,26.13
2022-08-04T06:12:01.787Z,26.23
2022-08-04T06:15:10.115Z,26.33
2022-08-04T06:19:56.368Z,26.28
2022-08-04T06:21:49.095Z,26.38
2022-08-04T06:24:58.729Z,26.42
2022-08-04T06:28:08.410Z,26.60
2022-08-04T06:32:28.939Z,26.58
2022-08-04T06:34:48.663Z,26.87
2022-08-04T06:38:00.643Z,26.77
2022-08-04T06:41:09.677Z,27.04
2022-08-04T06:44:16.532Z,27.39
2022-08-04T06:47:23.317Z,27.19
2022-08-04T06:51:27.924Z,27.15
2022-08-04T06:53:56.583Z,27.51
2022-08-04T06:57:03.632Z,27.61
2022-08-04T07:00:12.827Z,27.55
2022-08-04T07:03:22.135Z,27.37
2022-08-04T07:06:27.722Z,27.50
2022-08-04T07:09:34.194Z,27.53
2022-08-04T07:12:40.681Z,27.51
2022-08-04T07:15:48.104Z,27.62
2022-08-04T07:18:53.487Z,27.74
2022-08-04T07:22:24.513Z,27.90
2022-08-04T07:25:58.799Z,28.03
2022-08-04T07:28:54.509Z,27.86
2022-08-04T07:32:02.188Z,28.25
2022-08-04T07:35:08.819Z,28.10
2022-08-04T07:38:37.716Z,28.37
2022-08-04T07:41:54.536Z,28.25
2022-08-04T07:45:00.254Z,28.19
2022-08-04T07:48:07.473Z,28.52
2022-08-04T07:51:13.378Z,28.42
2022-08-04T07:54:19.892Z,28.66
2022-08-04T07:57:40.647Z,28.81
2022-08-04T08:00:49.428Z,28.81
2022-08-04T08:03:57.304Z,28.89
2022-08-04T08:07:02.955Z,28.91
2022-08-04T08:10:14.523Z,28.94
2022-08-04T08:13:20.951Z,28.89
2022-08-04T08:16:28.127Z,28.96
2022-08-04T08:19:35.291Z,29.02
2022-08-04T08:22:41.014Z,29.01
2022-08-04T08:25:46.700Z,29.12
2022-08-04T08:28:52.400Z,28.89
2022-08-04T08:32:02.718Z,29.18
2022-08-04T08:35:11.389Z,29.44
2022-08-04T08:38:21.125Z,29.42
2022-08-04T08:41:52.085Z,29.47
2022-08-04T08:45:26.211Z,29.68
2022-08-04T08:50:01.006Z,29.73
2022-08-04T08:53:16.013Z,29.78
2022-08-04T08:56:32.639Z,29.90
2022-08-04T09:00:05.626Z,29.90
2022-08-04T09:03:32.506Z,29.97
2022-08-04T09:06:37.647Z,30.17
2022-08-04T09:10:04.955Z,29.97
2022-08-04T09:13:40.684Z,30.15
2022-08-04T09:16:57.001Z,30.28
2022-08-04T09:20:31.103Z,30.38
2022-08-04T09:23:54.843Z,30.51
2022-08-04T09:27:12.011Z,30.49
2022-08-04T09:30:23.854Z,30.37
2022-08-04T09:33:46.147Z,30.43
2022-08-04T09:37:13.817Z,30.55
2022-08-04T09:40:31.070Z,30.54
2022-08-04T09:44:49.829Z,30.54
2022-08-04T09:47:49.869Z,30.61
2022-08-04T09:50:59.967Z,30.56
2022-08-04T09:54:38.872Z,30.83
2022-08-04T09:58:07.940Z,31.07
2022-08-04T10:01:23.957Z,31.00
2022-08-04T10:04:33.343Z,31.24
2022-08-04T10:08:23.503Z,31.19
2022-08-04T10:11:56.017Z,31.20
2022-08-04T10:15:28.337Z,31.58
2022-08-04T10:19:07.813Z,31.49
2022-08-04T10:22:36.975Z,31.57
2022-08-04T10:26:26.397Z,31.65
2022-08-04T10:29:41.594Z,31.64
2022-08-04T10:33:03.597Z,31.89
2022-08-04T10:36:16.558Z,31.91
2022-08-04T10:39:43.163Z,31.83
2022-08-04T10:43:02.492Z,31.77
2022-08-04T10:46:21.860Z,31.89
2022-08-04T10:49:59.772Z,31.96
2022-08-04T10:53:14.466Z,31.76
2022-08-04T10:56:33.080Z,32.02
2022-08-04T11:00:03.519Z,32.33
2022-08-04T11:03:21.592Z,32.06
2022-08-04T11:06:27.667Z,32.22
2022-08-04T11:09:34.829Z,32.38
2022-08-04T11:12:43.190Z,32.53
2022-08-04T11:15:56.156Z,32.66
2022-08-04T11:19:16.011Z,32.62
2022-08-04T11:22:27.623Z,32.66
2022-08-04T11:25:56.666Z,32.47
2022-08-04T11:29:17.829Z,32.51
2022-08-04T11:32:52.618Z,32.49
2022-08-04T11:36:08.653Z,32.57
2022-08-04T11:39:37.797Z,32.73
2022-08-04T11:43:06.955Z,32.62
2022-08-04T11:46:44.448Z,32.92
2022-08-04T11:50:04.829Z,32.52
2022-08-04T11:53:16.129Z,32.73
2022-08-04T11:56:35.795Z,32.58
2022-08-04T11:59:44.636Z,32.55
2022-08-04T12:03:12.518Z,32.73
2022-08-04T12:06:56.927Z,32.79
2022-08-04T12:10:10.538Z,32.99
2022-08-04T12:13:25.826Z,32.85
2022-08-04T12:16:42.762Z,32.97
2022-08-04T12:20:03.896Z,33.02
2022-08-04T12:23:33.843Z,33.01
2022-08-04T12:26:44.871Z,33.23
2022-08-04T12:31:01.602Z,33.34
2022-08-04T12:33:41.411Z,33.03
2022-08-04T12:37:45.204Z,33.24
2022-08-04T12:40:54.574Z,33.23
2022-08-04T12:44:37.228Z,33.38
2022-08-04T12:47:40.705Z,33.60
2022-08-04T12:51:05.574Z,33.64
2022-08-04T12:54:12.773Z,33.53
2022-08-04T12:57:19.702Z,33.55
2022-08-04T13:00:41.360Z,33.62
2022-08-04T13:04:04.216Z,33.51
2022-08-04T13:07:36.536Z,33.65
2022-08-04T13:10:51.120Z,33.78
2022-08-04T13:14:24.498Z,33.88
2022-08-04T13:17:23.625Z,33.83
2022-08-04T13:20:38.043Z,33.86
2022-08-04T13:24:10.631Z,33.98
2022-08-04T13:27:16.187Z,34.02
2022-08-04T13:30:23.493Z,34.21
2022-08-04T13:33:36.006Z,34.20
2022-08-04T13:36:43.038Z,34.09
2022-08-04T13:39:55.593Z,34.12
2022-08-04T13:43:02.845Z,33.98
2022-08-04T13:46:13.618Z,34.19
2022-08-04T13:49:42.736Z,34.37
2022-08-04T13:53:02.670Z,34.36
2022-08-04T13:56:11.054Z,34.41
2022-08-04T13:59:18.972Z,34.56
2022-08-04T14:02:33.410Z,34.42
2022-08-04T14:05:59.192Z,34.40
2022-08-04T14:09:15.914Z,34.53
2022-08-04T14:12:45.526Z,34.48
2022-08-04T14:16:03.042Z,34.57
2022-08-04T14:19:10.872Z,34.66
2022-08-04T14:22:28.725Z,34.72
2022-08-04T14:25:35.681Z,34.74
2022-08-04T14:29:09.731Z,34.68
2022-08-04T14:32:22.912Z,34.71
2022-08-04T14:35:49.915Z,34.58
2022-08-04T14:39:00.478Z,34.58
2022-08-04T14:42:07.734Z,34.85
2022-08-04T14:45:13.054Z,34.91
2022-08-04T14:48:18.503Z,34.85
2022-08-04T14:51:26.241Z,34.81
2022-08-04T14:54:42.180Z,34.74
2022-08-04T14:58:35.211Z,34.77
2022-08-04T15:01:17.253Z,34.92
2022-08-04T15:04:25.459Z,34.84
2022-08-04T15:07:31.869Z,35.05
2022-08-04T15:10:37.114Z,34.90
2022-08-04T15:13:42.675Z,34.89
2022-08-04T15:16:54.450Z,35.13
2022-08-04T15:20:00.489Z,35.09
2022-08-04T15:23:10.625Z,35.08
2022-08-04T15:26:38.405Z,35.08
2022-08-04T15:30:00.743Z,34.93
2022-08-04T15:33:08.753Z,34.98
2022-08-04T15:36:31.594Z,35.13
2022-08-04T15:40:00.290Z,34.95
2022-08-04T15:43:46.294Z,34.95
2022-08-04T15:47:03.974Z,34.91
2022-08-04T15:50:12.041Z,35.12
2022-08-04T15:53:22.942Z,35.08
2022-08-04T15:56:28.708Z,35.09
2022-08-04T16:00:03.411Z,35.10
2022-08-04T16:04:00.278Z,35.15
2022-08-04T16:07:07.621Z,35.17
2022-08-04T16:10:31.222Z,35.13
2022-08-04T16:13:36.689Z,35.15
2022-08-04T16:16:49.503Z,35.17
2022-08-04T16:20:15.114Z,35.25
2022-08-04T16:23:56.975Z,35.31
2022-08-04T16:27:06.734Z,35.38
2022-08-04T16:30:15.465Z,35.21
2022-08-04T16:33:28.709Z,35.14
2022-08-04T16:36:59.031Z,35.11
2022-08-04T16:40:37.652Z,34.98
2022-08-04T16:43:44.668Z,34.82
2022-08-04T16:47:08.096Z,34.84
2022-08-04T16:50:18.270Z,34.80
2022-08-04T16:53:53.037Z,34.63
2022-08-04T16:56:53.348Z,34.84
2022-08-04T16:59:59.443Z,34.85
2022-08-04T17:03:11.744Z,35.17
2022-08-04T17:06:18.323Z,35.05
2022-08-04T17:09:28.413Z,34.34
2022-08-04T17:12:34.749Z,34.04
2022-08-04T17:15:40.105Z,33.82
2022-08-04T17:18:55.422Z,33.65
2022-08-04T17:22:06.332Z,33.48
2022-08-04T17:25:12.168Z,33.21
2022-08-04T17:28:27.517Z,33.27
2022-08-04T17:31:47.981Z,33.27
2022-08-04T17:35:00.280Z,33.24
2022-08-04T17:38:07.713Z,32.99
2022-08-04T17:41:19.403Z,32.96
2022-08-04T17:44:37.712Z,32.85
2022-08-04T17:47:53.674Z,32.52
2022-08-04T17:51:17.052Z,32.58
2022-08-04T17:58:22.168Z,32.13
2022-08-04T18:01:28.149Z,31.99
2022-08-04T18:05:06.080Z,31.84
2022-08-04T18:08:39.480Z,31.81
2022-08-04T18:11:42.243Z,31.88
2022-08-04T18:14:50.526Z,31.67
2022-08-04T18:18:20.878Z,31.52
2022-08-04T18:21:21.944Z,31.44
2022-08-04T18:24:35.132Z,31.57
2022-08-04T18:27:57.824Z,31.46
2022-08-04T18:31:03.775Z,31.40
2022-08-04T18:34:13.882Z,31.30
2022-08-04T18:38:03.227Z,31.42
2022-08-04T18:40:55.167Z,31.25
2022-08-04T18:44:02.041Z,31.19
2022-08-04T18:47:19.392Z,31.06
2022-08-04T18:51:00.121Z,30.95
2022-08-04T18:53:58.316Z,30.92
2022-08-04T18:57:32.244Z,30.76
2022-08-04T19:00:30.996Z,30.74
2022-08-04T19:03:37.373Z,30.57
2022-08-04T19:06:43.373Z,30.68
2022-08-04T19:09:51.812Z,30.62
2022-08-04T19:12:58.151Z,30.66
2022-08-04T19:16:05.242Z,30.71
2022-08-04T19:19:22.879Z,30.64
2022-08-04T19:26:23.606Z,30.44
2022-08-04T19:29:37.615Z,30.38
2022-08-04T19:32:48.199Z,30.24
2022-08-04T19:35:54.022Z,30.15
2022-08-04T19:39:11.578Z,30.09
2022-08-04T19:42:17.436Z,30.01
2022-08-04T19:45:43.734Z,29.94
2022-08-04T19:48:59.541Z,29.83
2022-08-04T19:52:07.781Z,29.78
2022-08-04T19:55:13.873Z,29.75
2022-08-04T19:58:21.705Z,29.55
2022-08-04T20:01:37.036Z,29.55
2022-08-04T20:04:50.745Z,29.54
2022-08-04T20:07:57.216Z,29.42
2022-08-04T20:11:03.739Z,29.42
2022-08-04T20:14:09.364Z,29.47
2022-08-04T20:17:15.603Z,29.50
2022-08-04T20:20:23.825Z,29.38
2022-08-04T20:23:48.129Z,29.33
2022-08-04T20:26:55.965Z,29.30
2022-08-04T20:30:01.665Z,29.17
2022-08-04T20:33:07.159Z,29.10
2022-08-04T20:36:19.771Z,29.13
2022-08-04T20:39:25.199Z,29.20
2022-08-04T20:42:34.159Z,29.00
2022-08-04T20:45:56.460Z,28.97
2022-08-04T20:49:05.637Z,28.49
2022-08-04T20:52:18.091Z,28.30
2022-08-04T20:55:29.715Z,28.24
2022-08-04T20:58:35.324Z,28.26
2022-08-04T21:01:40.498Z,28.21
2022-08-04T21:04:51.415Z,28.18
2022-08-04T21:07:57.993Z,28.00
2022-08-04T21:11:06.981Z,27.71
2022-08-04T21:14:14.756Z,27.42
2022-08-04T21:17:20.580Z,27.75
2022-08-04T21:20:48.166Z,27.70
2022-08-04T21:23:54.315Z,27.63
2022-08-04T21:27:02.006Z,27.57
2022-08-04T21:30:14.944Z,27.59
2022-08-04T21:33:51.066Z,27.64
2022-08-04T21:36:57.923Z,27.48
2022-08-04T21:40:14.595Z,27.39
2022-08-04T21:43:42.295Z,27.60
2022-08-04T21:46:49.122Z,27.52
2022-08-04T21:49:57.506Z,27.41
2022-08-04T21:53:03.410Z,27.44
2022-08-04T21:56:08.770Z,27.31
2022-08-04T21:59:14.725Z,27.36
2022-08-04T22:02:21.288Z,27.45
2022-08-04T22:05:26.937Z,27.22
2022-08-04T22:08:39.939Z,27.15
2022-08-04T22:11:50.826Z,27.16
2022-08-04T22:18:24.442Z,27.31
2022-08-04T22:21:33.839Z,27.24
2022-08-04T22:24:45.113Z,27.24
2022-08-04T22:28:00.747Z,27.22
2022-08-04T22:31:23.339Z,27.12
2022-08-04T22:34:30.637Z,27.27
2022-08-04T22:37:44.530Z,27.20
2022-08-04T22:40:59.718Z,27.01
2022-08-04T22:44:05.197Z,26.89
2022-08-04T22:47:20.593Z,26.97
2022-08-04T22:50:29.828Z,26.96
2022-08-04T22:53:36.498Z,26.93
2022-08-04T22:56:42.295Z,26.82
2022-08-04T22:59:52.003Z,26.71
2022-08-04T23:02:57.295Z,26.74
2022-08-04T23:06:06.776Z,26.70
2022-08-04T23:09:16.366Z,26.70
2022-08-04T23:12:25.510Z,26.56
2022-08-04T23:15:33.677Z,26.60
2022-08-04T23:18:42.005Z,26.58
2022-08-04T23:22:01.828Z,26.58
2022-08-04T23:25:16.064Z,26.61
2022-08-04T23:28:22.528Z,26.39
2022-08-04T23:31:41.276Z,26.53
2022-08-04T23:34:54.562Z,26.53
2022-08-04T23:38:00.060Z,26.47
2022-08-04T23:41:25.190Z,26.46
2022-08-04T23:44:50.816Z,26.42
2022-08-04T23:48:19.433Z,26.22
2022-08-04T23:51:22.614Z,26.30
2022-08-04T23:54:27.857Z,26.39
2022-08-04T23:58:06.196Z,26.35
